sensor_id;sensor_type;location;lat;lon;timestamp;temperature;humidity
9305;DHT22;4690;52.422;13.486;2024-02-26T00:09:54;2.40;99.90
9305;DHT22;4690;52.422;13.486;2024-02-26T00:12:20;2.30;99.90
9305;DHT22;4690;52.422;13.486;2024-02-26T00:14:46;2.30;99.90
9305;DHT22;4690;52.422;13.486;2024-02-26T00:17:13;2.30;99.90
9305;DHT22;4690;52.422;13.486;2024-02-26T00:19:39;2.30;99.90
9305;DHT22;4690;52.422;13.486;2024-02-26T00:22:04;2.30;99.90
9305;DHT22;4690;52.422;13.486;2024-02-26T00:24:30;2.20;99.90
9305;DHT22;4690;52.422;13.486;2024-02-26T00:26:56;2.20;99.90
9305;DHT22;4690;52.422;13.486;2024-02-26T00:29:22;2.30;99.90
9305;DHT22;4690;52.422;13.486;2024-02-26T00:31:48;2.20;99.90
9305;DHT22;4690;52.422;13.486;2024-02-26T00:34:14;2.20;99.90
9305;DHT22;4690;52.422;13.486;2024-02-26T00:36:40;2.20;99.90
9305;DHT22;4690;52.422;13.486;2024-02-26T00:39:05;2.30;99.90
9305;DHT22;4690;52.422;13.486;2024-02-26T00:41:31;2.20;99.90
9305;DHT22;4690;52.422;13.486;2024-02-26T00:43:57;2.20;99.90
9305;DHT22;4690;52.422;13.486;2024-02-26T00:46:23;2.20;99.90
9305;DHT22;4690;52.422;13.486;2024-02-26T00:48:49;2.20;99.90
9305;DHT22;4690;52.422;13.486;2024-02-26T00:51:14;2.20;99.90
9305;DHT22;4690;52.422;13.486;2024-02-26T00:53:40;2.10;99.90
9305;DHT22;4690;52.422;13.486;2024-02-26T00:56:06;2.10;99.90
9305;DHT22;4690;52.422;13.486;2024-02-26T00:58:32;2.00;99.90
9305;DHT22;4690;52.422;13.486;2024-02-26T01:00:58;2.10;99.90
9305;DHT22;4690;52.422;13.486;2024-02-26T01:03:23;2.00;99.90
9305;DHT22;4690;52.422;13.486;2024-02-26T01:05:49;2.00;99.90
9305;DHT22;4690;52.422;13.486;2024-02-26T01:08:15;2.00;99.90
9305;DHT22;4690;52.422;13.486;2024-02-26T01:10:40;2.00;99.90
9305;DHT22;4690;52.422;13.486;2024-02-26T01:13:06;1.80;99.90
9305;DHT22;4690;52.422;13.486;2024-02-26T01:15:33;1.80;99.90
9305;DHT22;4690;52.422;13.486;2024-02-26T01:17:58;1.80;99.90
9305;DHT22;4690;52.422;13.486;2024-02-26T01:20:24;1.70;99.90
9305;DHT22;4690;52.422;13.486;2024-02-26T01:22:50;1.70;99.90
9305;DHT22;4690;52.422;13.486;2024-02-26T01:25:16;1.70;99.90
9305;DHT22;4690;52.422;13.486;2024-02-26T01:27:42;1.70;99.90
9305;DHT22;4690;52.422;13.486;2024-02-26T01:30:09;1.60;99.90
9305;DHT22;4690;52.422;13.486;2024-02-26T01:32:35;1.70;99.90
9305;DHT22;4690;52.422;13.486;2024-02-26T01:35:02;1.60;99.90
9305;DHT22;4690;52.422;13.486;2024-02-26T01:37:32;1.60;99.90
9305;DHT22;4690;52.422;13.486;2024-02-26T01:39:58;1.60;99.90
9305;DHT22;4690;52.422;13.486;2024-02-26T01:42:24;1.60;99.90
9305;DHT22;4690;52.422;13.486;2024-02-26T01:44:50;1.60;99.90
9305;DHT22;4690;52.422;13.486;2024-02-26T01:47:15;1.50;99.90
9305;DHT22;4690;52.422;13.486;2024-02-26T01:49:41;1.50;99.90
9305;DHT22;4690;52.422;13.486;2024-02-26T01:52:08;1.50;99.90
9305;DHT22;4690;52.422;13.486;2024-02-26T01:54:37;1.50;99.90
9305;DHT22;4690;52.422;13.486;2024-02-26T01:57:05;1.50;99.90
9305;DHT22;4690;52.422;13.486;2024-02-26T01:59:32;1.50;99.90
9305;DHT22;4690;52.422;13.486;2024-02-26T02:02:01;1.50;99.90
9305;DHT22;4690;52.422;13.486;2024-02-26T02:04:30;1.40;99.90
9305;DHT22;4690;52.422;13.486;2024-02-26T02:06:57;1.40;99.90
9305;DHT22;4690;52.422;13.486;2024-02-26T02:09:26;1.40;99.90
9305;DHT22;4690;52.422;13.486;2024-02-26T02:11:53;1.40;99.90
9305;DHT22;4690;52.422;13.486;2024-02-26T02:14:20;1.30;99.90
9305;DHT22;4690;52.422;13.486;2024-02-26T02:16:47;1.30;99.90
9305;DHT22;4690;52.422;13.486;2024-02-26T02:19:13;1.30;99.90
9305;DHT22;4690;52.422;13.486;2024-02-26T02:21:39;1.20;99.90
9305;DHT22;4690;52.422;13.486;2024-02-26T02:24:05;1.20;99.90
9305;DHT22;4690;52.422;13.486;2024-02-26T02:26:31;1.20;99.90
9305;DHT22;4690;52.422;13.486;2024-02-26T02:28:57;1.20;99.90
9305;DHT22;4690;52.422;13.486;2024-02-26T02:31:25;1.20;99.90
9305;DHT22;4690;52.422;13.486;2024-02-26T02:33:50;1.10;99.90
9305;DHT22;4690;52.422;13.486;2024-02-26T02:36:16;1.10;99.90
9305;DHT22;4690;52.422;13.486;2024-02-26T02:38:49;1.10;99.90
9305;DHT22;4690;52.422;13.486;2024-02-26T02:41:16;1.00;99.90
9305;DHT22;4690;52.422;13.486;2024-02-26T02:43:42;1.10;99.90
9305;DHT22;4690;52.422;13.486;2024-02-26T02:46:07;1.00;99.90
9305;DHT22;4690;52.422;13.486;2024-02-26T02:48:33;1.00;99.90
9305;DHT22;4690;52.422;13.486;2024-02-26T02:50:59;1.10;99.90
9305;DHT22;4690;52.422;13.486;2024-02-26T02:53:24;1.10;99.90
9305;DHT22;4690;52.422;13.486;2024-02-26T02:55:50;1.10;99.90
9305;DHT22;4690;52.422;13.486;2024-02-26T02:58:16;1.10;99.90
9305;DHT22;4690;52.422;13.486;2024-02-26T03:00:42;1.10;99.90
9305;DHT22;4690;52.422;13.486;2024-02-26T03:03:07;1.10;99.90
9305;DHT22;4690;52.422;13.486;2024-02-26T03:05:33;1.10;99.90
9305;DHT22;4690;52.422;13.486;2024-02-26T03:07:59;1.10;99.90
9305;DHT22;4690;52.422;13.486;2024-02-26T03:10:25;1.10;99.90
9305;DHT22;4690;52.422;13.486;2024-02-26T03:12:50;1.00;99.90
9305;DHT22;4690;52.422;13.486;2024-02-26T03:15:16;1.00;99.90
9305;DHT22;4690;52.422;13.486;2024-02-26T03:17:42;1.00;99.90
9305;DHT22;4690;52.422;13.486;2024-02-26T03:20:08;0.90;99.90
9305;DHT22;4690;52.422;13.486;2024-02-26T03:22:35;0.90;99.90
9305;DHT22;4690;52.422;13.486;2024-02-26T03:25:01;0.90;99.90
9305;DHT22;4690;52.422;13.486;2024-02-26T03:27:27;0.90;99.90
9305;DHT22;4690;52.422;13.486;2024-02-26T03:29:52;0.90;99.90
9305;DHT22;4690;52.422;13.486;2024-02-26T03:32:18;0.80;99.90
9305;DHT22;4690;52.422;13.486;2024-02-26T03:34:44;0.80;99.90
9305;DHT22;4690;52.422;13.486;2024-02-26T03:37:10;0.80;99.90
9305;DHT22;4690;52.422;13.486;2024-02-26T03:39:36;0.70;99.90
9305;DHT22;4690;52.422;13.486;2024-02-26T03:42:03;0.70;99.90
9305;DHT22;4690;52.422;13.486;2024-02-26T03:44:29;0.70;99.90
9305;DHT22;4690;52.422;13.486;2024-02-26T03:46:54;0.70;99.90
9305;DHT22;4690;52.422;13.486;2024-02-26T03:49:21;0.70;99.90
9305;DHT22;4690;52.422;13.486;2024-02-26T03:51:48;0.70;99.90
9305;DHT22;4690;52.422;13.486;2024-02-26T03:54:14;0.70;99.90
9305;DHT22;4690;52.422;13.486;2024-02-26T03:56:39;0.70;99.90
9305;DHT22;4690;52.422;13.486;2024-02-26T03:59:05;0.70;99.90
9305;DHT22;4690;52.422;13.486;2024-02-26T04:01:31;0.70;99.90
9305;DHT22;4690;52.422;13.486;2024-02-26T04:03:57;0.70;99.90
9305;DHT22;4690;52.422;13.486;2024-02-26T04:06:23;0.70;99.90
9305;DHT22;4690;52.422;13.486;2024-02-26T04:08:49;0.80;99.90
9305;DHT22;4690;52.422;13.486;2024-02-26T04:11:15;0.70;99.90
9305;DHT22;4690;52.422;13.486;2024-02-26T04:13:44;0.70;99.90
9305;DHT22;4690;52.422;13.486;2024-02-26T04:16:15;0.70;99.90
9305;DHT22;4690;52.422;13.486;2024-02-26T04:18:42;0.70;99.90
9305;DHT22;4690;52.422;13.486;2024-02-26T04:21:08;0.80;99.90
9305;DHT22;4690;52.422;13.486;2024-02-26T04:23:33;0.70;99.90
9305;DHT22;4690;52.422;13.486;2024-02-26T04:25:59;0.80;99.90
9305;DHT22;4690;52.422;13.486;2024-02-26T04:28:25;0.80;99.90
9305;DHT22;4690;52.422;13.486;2024-02-26T04:30:51;0.80;99.90
9305;DHT22;4690;52.422;13.486;2024-02-26T04:33:18;0.80;99.90
9305;DHT22;4690;52.422;13.486;2024-02-26T04:35:43;0.80;99.90
9305;DHT22;4690;52.422;13.486;2024-02-26T04:38:09;0.80;99.90
9305;DHT22;4690;52.422;13.486;2024-02-26T04:40:35;0.80;99.90
9305;DHT22;4690;52.422;13.486;2024-02-26T04:43:01;0.80;99.90
9305;DHT22;4690;52.422;13.486;2024-02-26T04:45:27;0.80;99.90
9305;DHT22;4690;52.422;13.486;2024-02-26T04:47:52;0.80;99.90
9305;DHT22;4690;52.422;13.486;2024-02-26T04:50:18;0.80;99.90
9305;DHT22;4690;52.422;13.486;2024-02-26T04:52:44;0.80;99.90
9305;DHT22;4690;52.422;13.486;2024-02-26T04:55:10;0.80;99.90
9305;DHT22;4690;52.422;13.486;2024-02-26T04:57:35;0.80;99.90
9305;DHT22;4690;52.422;13.486;2024-02-26T05:00:01;0.90;99.90
9305;DHT22;4690;52.422;13.486;2024-02-26T05:02:28;0.90;99.90
9305;DHT22;4690;52.422;13.486;2024-02-26T05:04:55;0.90;99.90
9305;DHT22;4690;52.422;13.486;2024-02-26T05:07:21;0.90;99.90
9305;DHT22;4690;52.422;13.486;2024-02-26T05:09:47;0.90;99.90
9305;DHT22;4690;52.422;13.486;2024-02-26T05:12:15;1.00;99.90
9305;DHT22;4690;52.422;13.486;2024-02-26T05:14:40;0.90;99.90
9305;DHT22;4690;52.422;13.486;2024-02-26T05:17:06;0.90;99.90
9305;DHT22;4690;52.422;13.486;2024-02-26T05:19:32;0.90;99.90
9305;DHT22;4690;52.422;13.486;2024-02-26T05:21:58;0.90;99.90
9305;DHT22;4690;52.422;13.486;2024-02-26T05:24:23;1.00;99.90
9305;DHT22;4690;52.422;13.486;2024-02-26T05:26:49;1.00;99.90
9305;DHT22;4690;52.422;13.486;2024-02-26T05:29:15;1.00;99.90
9305;DHT22;4690;52.422;13.486;2024-02-26T05:31:44;1.00;99.90
9305;DHT22;4690;52.422;13.486;2024-02-26T05:34:09;1.00;99.90
9305;DHT22;4690;52.422;13.486;2024-02-26T05:36:35;1.00;99.90
9305;DHT22;4690;52.422;13.486;2024-02-26T05:39:01;1.00;99.90
9305;DHT22;4690;52.422;13.486;2024-02-26T05:41:29;1.00;99.90
9305;DHT22;4690;52.422;13.486;2024-02-26T05:43:55;1.00;99.90
9305;DHT22;4690;52.422;13.486;2024-02-26T05:46:21;1.00;99.90
9305;DHT22;4690;52.422;13.486;2024-02-26T05:48:51;0.90;99.90
9305;DHT22;4690;52.422;13.486;2024-02-26T05:51:17;1.00;99.90
9305;DHT22;4690;52.422;13.486;2024-02-26T05:53:43;0.90;99.90
9305;DHT22;4690;52.422;13.486;2024-02-26T05:56:09;0.90;99.90
9305;DHT22;4690;52.422;13.486;2024-02-26T05:58:35;1.00;99.90
9305;DHT22;4690;52.422;13.486;2024-02-26T06:01:01;1.00;99.90
9305;DHT22;4690;52.422;13.486;2024-02-26T06:03:27;0.90;99.90
9305;DHT22;4690;52.422;13.486;2024-02-26T06:05:53;0.90;99.90
9305;DHT22;4690;52.422;13.486;2024-02-26T06:08:19;1.00;99.90
9305;DHT22;4690;52.422;13.486;2024-02-26T06:10:44;1.00;99.90
9305;DHT22;4690;52.422;13.486;2024-02-26T06:13:10;1.10;99.90
9305;DHT22;4690;52.422;13.486;2024-02-26T06:15:36;1.10;99.90
9305;DHT22;4690;52.422;13.486;2024-02-26T06:18:02;1.10;99.90
9305;DHT22;4690;52.422;13.486;2024-02-26T06:20:28;1.20;99.90
9305;DHT22;4690;52.422;13.486;2024-02-26T06:22:54;1.20;99.90
9305;DHT22;4690;52.422;13.486;2024-02-26T06:25:20;1.30;99.90
9305;DHT22;4690;52.422;13.486;2024-02-26T06:27:45;1.40;99.90
9305;DHT22;4690;52.422;13.486;2024-02-26T06:30:11;1.40;99.90
9305;DHT22;4690;52.422;13.486;2024-02-26T06:32:38;1.40;99.90
9305;DHT22;4690;52.422;13.486;2024-02-26T06:35:04;1.50;99.90
9305;DHT22;4690;52.422;13.486;2024-02-26T06:37:35;1.60;99.90
9305;DHT22;4690;52.422;13.486;2024-02-26T06:40:02;1.70;99.90
9305;DHT22;4690;52.422;13.486;2024-02-26T06:42:32;1.70;99.90
9305;DHT22;4690;52.422;13.486;2024-02-26T06:44:58;1.70;99.90
9305;DHT22;4690;52.422;13.486;2024-02-26T06:47:24;1.80;99.90
9305;DHT22;4690;52.422;13.486;2024-02-26T06:49:51;1.90;99.90
9305;DHT22;4690;52.422;13.486;2024-02-26T06:52:17;2.00;99.90
9305;DHT22;4690;52.422;13.486;2024-02-26T06:54:42;2.20;99.90
9305;DHT22;4690;52.422;13.486;2024-02-26T06:57:08;2.40;99.90
9305;DHT22;4690;52.422;13.486;2024-02-26T06:59:34;2.60;99.90
9305;DHT22;4690;52.422;13.486;2024-02-26T07:02:00;2.70;99.90
9305;DHT22;4690;52.422;13.486;2024-02-26T07:04:25;3.00;99.90
9305;DHT22;4690;52.422;13.486;2024-02-26T07:06:51;3.20;99.90
9305;DHT22;4690;52.422;13.486;2024-02-26T07:09:17;3.40;99.90
9305;DHT22;4690;52.422;13.486;2024-02-26T07:11:43;3.50;99.90
9305;DHT22;4690;52.422;13.486;2024-02-26T07:14:09;3.70;99.90
9305;DHT22;4690;52.422;13.486;2024-02-26T07:16:36;3.90;99.90
9305;DHT22;4690;52.422;13.486;2024-02-26T07:19:02;4.10;99.90
9305;DHT22;4690;52.422;13.486;2024-02-26T07:21:28;4.20;99.90
9305;DHT22;4690;52.422;13.486;2024-02-26T07:23:54;4.30;99.90
9305;DHT22;4690;52.422;13.486;2024-02-26T07:26:20;4.50;99.90
9305;DHT22;4690;52.422;13.486;2024-02-26T07:28:46;4.70;99.90
9305;DHT22;4690;52.422;13.486;2024-02-26T07:31:12;4.80;99.90
9305;DHT22;4690;52.422;13.486;2024-02-26T07:33:38;4.90;99.90
9305;DHT22;4690;52.422;13.486;2024-02-26T07:36:04;4.80;99.90
9305;DHT22;4690;52.422;13.486;2024-02-26T07:38:30;5.00;99.90
9305;DHT22;4690;52.422;13.486;2024-02-26T07:40:56;5.00;99.90
9305;DHT22;4690;52.422;13.486;2024-02-26T07:43:22;5.00;99.90
9305;DHT22;4690;52.422;13.486;2024-02-26T07:45:48;5.00;99.90
9305;DHT22;4690;52.422;13.486;2024-02-26T07:48:14;5.00;99.90
9305;DHT22;4690;52.422;13.486;2024-02-26T07:50:39;5.00;99.90
9305;DHT22;4690;52.422;13.486;2024-02-26T07:53:06;5.00;99.90
9305;DHT22;4690;52.422;13.486;2024-02-26T07:55:31;4.90;99.90
9305;DHT22;4690;52.422;13.486;2024-02-26T07:57:57;4.90;99.90
9305;DHT22;4690;52.422;13.486;2024-02-26T08:00:23;4.90;99.90
9305;DHT22;4690;52.422;13.486;2024-02-26T08:02:49;4.90;99.90
9305;DHT22;4690;52.422;13.486;2024-02-26T08:05:14;5.00;99.90
9305;DHT22;4690;52.422;13.486;2024-02-26T08:07:40;5.00;99.90
9305;DHT22;4690;52.422;13.486;2024-02-26T08:10:07;5.00;99.90
9305;DHT22;4690;52.422;13.486;2024-02-26T08:12:33;5.00;99.90
9305;DHT22;4690;52.422;13.486;2024-02-26T08:14:59;5.00;99.90
9305;DHT22;4690;52.422;13.486;2024-02-26T08:17:25;5.10;99.90
9305;DHT22;4690;52.422;13.486;2024-02-26T08:19:52;5.10;99.90
9305;DHT22;4690;52.422;13.486;2024-02-26T08:22:18;5.10;99.90
9305;DHT22;4690;52.422;13.486;2024-02-26T08:24:44;5.20;99.90
9305;DHT22;4690;52.422;13.486;2024-02-26T08:27:10;5.20;99.90
9305;DHT22;4690;52.422;13.486;2024-02-26T08:29:36;5.40;99.90
9305;DHT22;4690;52.422;13.486;2024-02-26T08:32:02;5.50;99.90
9305;DHT22;4690;52.422;13.486;2024-02-26T08:34:28;6.00;99.90
9305;DHT22;4690;52.422;13.486;2024-02-26T08:36:54;6.20;99.90
9305;DHT22;4690;52.422;13.486;2024-02-26T08:39:19;6.20;99.90
9305;DHT22;4690;52.422;13.486;2024-02-26T08:41:46;6.30;99.90
9305;DHT22;4690;52.422;13.486;2024-02-26T08:44:12;6.20;99.90
9305;DHT22;4690;52.422;13.486;2024-02-26T08:46:37;6.30;99.90
9305;DHT22;4690;52.422;13.486;2024-02-26T08:49:04;6.60;99.90
9305;DHT22;4690;52.422;13.486;2024-02-26T08:51:29;6.70;99.90
9305;DHT22;4690;52.422;13.486;2024-02-26T08:53:56;6.70;99.90
9305;DHT22;4690;52.422;13.486;2024-02-26T08:56:22;6.90;99.90
9305;DHT22;4690;52.422;13.486;2024-02-26T08:58:48;7.30;99.90
9305;DHT22;4690;52.422;13.486;2024-02-26T09:01:17;7.70;99.90
9305;DHT22;4690;52.422;13.486;2024-02-26T09:03:42;7.50;99.90
9305;DHT22;4690;52.422;13.486;2024-02-26T09:06:08;7.40;99.90
9305;DHT22;4690;52.422;13.486;2024-02-26T09:08:34;7.70;99.90
9305;DHT22;4690;52.422;13.486;2024-02-26T09:11:01;7.50;99.90
9305;DHT22;4690;52.422;13.486;2024-02-26T09:13:28;7.60;99.90
9305;DHT22;4690;52.422;13.486;2024-02-26T09:15:54;7.40;99.90
9305;DHT22;4690;52.422;13.486;2024-02-26T09:18:20;7.40;99.90
9305;DHT22;4690;52.422;13.486;2024-02-26T09:20:46;7.30;99.90
9305;DHT22;4690;52.422;13.486;2024-02-26T09:23:12;7.20;99.90
9305;DHT22;4690;52.422;13.486;2024-02-26T09:25:37;7.30;99.90
9305;DHT22;4690;52.422;13.486;2024-02-26T09:28:03;7.30;99.90
9305;DHT22;4690;52.422;13.486;2024-02-26T09:30:29;7.10;99.90
9305;DHT22;4690;52.422;13.486;2024-02-26T09:32:55;7.20;99.90
9305;DHT22;4690;52.422;13.486;2024-02-26T09:35:21;7.60;99.90
9305;DHT22;4690;52.422;13.486;2024-02-26T09:37:47;7.60;99.90
9305;DHT22;4690;52.422;13.486;2024-02-26T09:40:14;7.70;99.90
9305;DHT22;4690;52.422;13.486;2024-02-26T09:42:45;7.70;99.90
9305;DHT22;4690;52.422;13.486;2024-02-26T09:45:18;7.90;99.90
9305;DHT22;4690;52.422;13.486;2024-02-26T09:47:48;8.10;99.90
9305;DHT22;4690;52.422;13.486;2024-02-26T09:50:17;8.20;99.90
9305;DHT22;4690;52.422;13.486;2024-02-26T09:52:43;8.10;99.90
9305;DHT22;4690;52.422;13.486;2024-02-26T09:55:09;8.30;99.90
9305;DHT22;4690;52.422;13.486;2024-02-26T09:57:44;8.40;99.90
9305;DHT22;4690;52.422;13.486;2024-02-26T10:00:15;8.40;99.90
9305;DHT22;4690;52.422;13.486;2024-02-26T10:02:46;8.50;99.90
9305;DHT22;4690;52.422;13.486;2024-02-26T10:05:17;8.50;99.90
9305;DHT22;4690;52.422;13.486;2024-02-26T10:07:44;8.70;99.90
9305;DHT22;4690;52.422;13.486;2024-02-26T10:10:12;8.80;99.90
9305;DHT22;4690;52.422;13.486;2024-02-26T10:12:39;8.80;99.90
9305;DHT22;4690;52.422;13.486;2024-02-26T10:15:05;8.80;99.90
9305;DHT22;4690;52.422;13.486;2024-02-26T10:17:31;9.00;99.90
9305;DHT22;4690;52.422;13.486;2024-02-26T10:20:15;9.20;99.90
9305;DHT22;4690;52.422;13.486;2024-02-26T10:22:47;9.40;99.90
9305;DHT22;4690;52.422;13.486;2024-02-26T10:25:13;9.40;99.90
9305;DHT22;4690;52.422;13.486;2024-02-26T10:27:42;9.60;99.90
9305;DHT22;4690;52.422;13.486;2024-02-26T10:32:46;9.80;99.90
9305;DHT22;4690;52.422;13.486;2024-02-26T10:35:13;9.80;99.90
9305;DHT22;4690;52.422;13.486;2024-02-26T10:37:41;9.80;99.90
9305;DHT22;4690;52.422;13.486;2024-02-26T10:40:13;9.90;99.90
9305;DHT22;4690;52.422;13.486;2024-02-26T10:42:40;10.00;99.90
9305;DHT22;4690;52.422;13.486;2024-02-26T10:45:09;10.20;99.90
9305;DHT22;4690;52.422;13.486;2024-02-26T10:47:36;10.10;99.90
9305;DHT22;4690;52.422;13.486;2024-02-26T10:50:03;10.10;99.90
9305;DHT22;4690;52.422;13.486;2024-02-26T10:52:35;10.30;99.90
9305;DHT22;4690;52.422;13.486;2024-02-26T10:55:03;10.50;99.90
9305;DHT22;4690;52.422;13.486;2024-02-26T10:57:35;10.50;99.90
9305;DHT22;4690;52.422;13.486;2024-02-26T11:00:07;10.60;99.90
9305;DHT22;4690;52.422;13.486;2024-02-26T11:02:38;10.70;99.90
9305;DHT22;4690;52.422;13.486;2024-02-26T11:05:07;10.80;99.90
9305;DHT22;4690;52.422;13.486;2024-02-26T11:07:36;10.90;99.90
9305;DHT22;4690;52.422;13.486;2024-02-26T11:10:04;11.20;99.90
9305;DHT22;4690;52.422;13.486;2024-02-26T11:12:32;11.30;99.90
9305;DHT22;4690;52.422;13.486;2024-02-26T11:15:01;11.30;99.90
9305;DHT22;4690;52.422;13.486;2024-02-26T11:17:28;11.30;99.90
9305;DHT22;4690;52.422;13.486;2024-02-26T11:19:57;11.40;99.90
9305;DHT22;4690;52.422;13.486;2024-02-26T11:22:27;11.70;99.90
9305;DHT22;4690;52.422;13.486;2024-02-26T11:24:55;11.70;99.90
9305;DHT22;4690;52.422;13.486;2024-02-26T11:27:36;11.70;99.90
9305;DHT22;4690;52.422;13.486;2024-02-26T11:30:09;11.90;99.90
9305;DHT22;4690;52.422;13.486;2024-02-26T11:32:36;12.00;99.90
9305;DHT22;4690;52.422;13.486;2024-02-26T11:35:05;12.00;99.90
9305;DHT22;4690;52.422;13.486;2024-02-26T11:37:32;12.10;99.90
9305;DHT22;4690;52.422;13.486;2024-02-26T11:40:01;11.90;99.90
9305;DHT22;4690;52.422;13.486;2024-02-26T11:42:27;11.90;99.90
9305;DHT22;4690;52.422;13.486;2024-02-26T11:44:55;11.90;99.90
9305;DHT22;4690;52.422;13.486;2024-02-26T11:47:27;12.00;99.90
9305;DHT22;4690;52.422;13.486;2024-02-26T11:49:53;11.90;99.90
9305;DHT22;4690;52.422;13.486;2024-02-26T11:52:18;11.80;99.90
9305;DHT22;4690;52.422;13.486;2024-02-26T11:54:48;12.00;99.90
9305;DHT22;4690;52.422;13.486;2024-02-26T11:59:57;12.20;99.90
9305;DHT22;4690;52.422;13.486;2024-02-26T12:02:47;12.10;99.90
9305;DHT22;4690;52.422;13.486;2024-02-26T12:05:18;12.10;99.90
9305;DHT22;4690;52.422;13.486;2024-02-26T12:07:47;12.10;99.90
9305;DHT22;4690;52.422;13.486;2024-02-26T12:12:41;12.30;99.90
9305;DHT22;4690;52.422;13.486;2024-02-26T12:15:08;12.40;99.90
9305;DHT22;4690;52.422;13.486;2024-02-26T12:17:35;12.40;99.90
9305;DHT22;4690;52.422;13.486;2024-02-26T12:20:09;12.30;99.90
9305;DHT22;4690;52.422;13.486;2024-02-26T12:22:35;12.30;99.90
9305;DHT22;4690;52.422;13.486;2024-02-26T12:25:05;12.50;99.90
9305;DHT22;4690;52.422;13.486;2024-02-26T12:27:31;12.50;99.90
9305;DHT22;4690;52.422;13.486;2024-02-26T12:29:57;12.30;99.90
9305;DHT22;4690;52.422;13.486;2024-02-26T12:32:23;12.30;99.90
9305;DHT22;4690;52.422;13.486;2024-02-26T12:34:49;12.40;99.90
9305;DHT22;4690;52.422;13.486;2024-02-26T12:37:16;12.40;99.90
9305;DHT22;4690;52.422;13.486;2024-02-26T12:39:42;12.20;99.90
9305;DHT22;4690;52.422;13.486;2024-02-26T12:42:08;12.20;99.90
9305;DHT22;4690;52.422;13.486;2024-02-26T12:44:35;12.10;99.90
9305;DHT22;4690;52.422;13.486;2024-02-26T12:47:02;12.10;99.90
9305;DHT22;4690;52.422;13.486;2024-02-26T12:49:29;12.30;99.90
9305;DHT22;4690;52.422;13.486;2024-02-26T12:51:55;12.20;99.90
9305;DHT22;4690;52.422;13.486;2024-02-26T12:54:33;12.20;99.90
9305;DHT22;4690;52.422;13.486;2024-02-26T12:57:00;12.40;99.90
9305;DHT22;4690;52.422;13.486;2024-02-26T12:59:29;12.40;99.90
9305;DHT22;4690;52.422;13.486;2024-02-26T13:01:56;12.50;99.90
9305;DHT22;4690;52.422;13.486;2024-02-26T13:04:23;12.60;99.90
9305;DHT22;4690;52.422;13.486;2024-02-26T13:06:51;12.60;99.90
9305;DHT22;4690;52.422;13.486;2024-02-26T13:09:16;12.40;99.90
9305;DHT22;4690;52.422;13.486;2024-02-26T13:11:44;12.50;99.90
9305;DHT22;4690;52.422;13.486;2024-02-26T13:14:22;12.30;99.90
9305;DHT22;4690;52.422;13.486;2024-02-26T13:16:58;12.10;99.90
9305;DHT22;4690;52.422;13.486;2024-02-26T13:19:24;12.10;99.90
9305;DHT22;4690;52.422;13.486;2024-02-26T13:21:50;12.00;99.90
9305;DHT22;4690;52.422;13.486;2024-02-26T13:24:16;12.00;99.90
9305;DHT22;4690;52.422;13.486;2024-02-26T13:26:43;11.80;99.90
9305;DHT22;4690;52.422;13.486;2024-02-26T13:29:09;11.80;99.90
9305;DHT22;4690;52.422;13.486;2024-02-26T13:31:42;11.80;99.90
9305;DHT22;4690;52.422;13.486;2024-02-26T13:34:08;11.80;99.90
9305;DHT22;4690;52.422;13.486;2024-02-26T13:36:33;11.80;99.90
9305;DHT22;4690;52.422;13.486;2024-02-26T13:38:59;11.70;99.90
9305;DHT22;4690;52.422;13.486;2024-02-26T13:41:26;11.80;99.90
9305;DHT22;4690;52.422;13.486;2024-02-26T13:43:52;11.60;99.90
9305;DHT22;4690;52.422;13.486;2024-02-26T13:46:19;11.70;99.90
9305;DHT22;4690;52.422;13.486;2024-02-26T13:48:45;11.70;99.90
9305;DHT22;4690;52.422;13.486;2024-02-26T13:51:10;11.70;99.90
9305;DHT22;4690;52.422;13.486;2024-02-26T13:53:36;11.50;99.90
9305;DHT22;4690;52.422;13.486;2024-02-26T13:56:02;11.50;99.90
9305;DHT22;4690;52.422;13.486;2024-02-26T13:58:31;11.50;99.90
9305;DHT22;4690;52.422;13.486;2024-02-26T14:00:56;11.40;99.90
9305;DHT22;4690;52.422;13.486;2024-02-26T14:03:23;11.50;99.90
9305;DHT22;4690;52.422;13.486;2024-02-26T14:05:49;11.40;99.90
9305;DHT22;4690;52.422;13.486;2024-02-26T14:08:15;11.30;99.90
9305;DHT22;4690;52.422;13.486;2024-02-26T14:10:41;11.30;99.90
9305;DHT22;4690;52.422;13.486;2024-02-26T14:13:07;11.40;99.90
9305;DHT22;4690;52.422;13.486;2024-02-26T14:15:33;11.40;99.90
9305;DHT22;4690;52.422;13.486;2024-02-26T14:18:01;11.30;99.90
9305;DHT22;4690;52.422;13.486;2024-02-26T14:20:28;11.30;99.90
9305;DHT22;4690;52.422;13.486;2024-02-26T14:22:54;11.30;99.90
9305;DHT22;4690;52.422;13.486;2024-02-26T14:25:20;11.30;99.90
9305;DHT22;4690;52.422;13.486;2024-02-26T14:27:47;11.20;99.90
9305;DHT22;4690;52.422;13.486;2024-02-26T14:30:13;11.30;99.90
9305;DHT22;4690;52.422;13.486;2024-02-26T14:32:40;11.20;99.90
9305;DHT22;4690;52.422;13.486;2024-02-26T14:35:07;11.10;99.90
9305;DHT22;4690;52.422;13.486;2024-02-26T14:37:35;11.10;99.90
9305;DHT22;4690;52.422;13.486;2024-02-26T14:40:02;11.10;99.90
9305;DHT22;4690;52.422;13.486;2024-02-26T14:42:29;11.10;99.90
9305;DHT22;4690;52.422;13.486;2024-02-26T14:44:55;11.20;99.90
9305;DHT22;4690;52.422;13.486;2024-02-26T14:47:21;11.10;99.90
9305;DHT22;4690;52.422;13.486;2024-02-26T14:49:46;11.00;99.90
9305;DHT22;4690;52.422;13.486;2024-02-26T14:52:14;11.00;99.90
9305;DHT22;4690;52.422;13.486;2024-02-26T14:54:40;10.90;99.90
9305;DHT22;4690;52.422;13.486;2024-02-26T14:57:06;11.00;99.90
9305;DHT22;4690;52.422;13.486;2024-02-26T14:59:33;10.90;99.90
9305;DHT22;4690;52.422;13.486;2024-02-26T15:01:59;10.90;99.90
9305;DHT22;4690;52.422;13.486;2024-02-26T15:04:26;10.90;99.90
9305;DHT22;4690;52.422;13.486;2024-02-26T15:06:52;10.90;99.90
9305;DHT22;4690;52.422;13.486;2024-02-26T15:09:17;10.80;99.90
9305;DHT22;4690;52.422;13.486;2024-02-26T15:11:43;10.80;99.90
9305;DHT22;4690;52.422;13.486;2024-02-26T15:14:10;10.80;99.90
9305;DHT22;4690;52.422;13.486;2024-02-26T15:16:36;10.70;99.90
9305;DHT22;4690;52.422;13.486;2024-02-26T15:19:02;10.70;99.90
9305;DHT22;4690;52.422;13.486;2024-02-26T15:21:29;10.70;99.90
9305;DHT22;4690;52.422;13.486;2024-02-26T15:23:55;10.70;99.90
9305;DHT22;4690;52.422;13.486;2024-02-26T15:26:21;10.60;99.90
9305;DHT22;4690;52.422;13.486;2024-02-26T15:28:47;10.60;99.90
9305;DHT22;4690;52.422;13.486;2024-02-26T15:31:16;10.60;99.90
9305;DHT22;4690;52.422;13.486;2024-02-26T15:33:42;10.60;99.90
9305;DHT22;4690;52.422;13.486;2024-02-26T15:36:08;10.60;99.90
9305;DHT22;4690;52.422;13.486;2024-02-26T15:38:38;10.60;99.90
9305;DHT22;4690;52.422;13.486;2024-02-26T15:41:14;10.60;99.90
9305;DHT22;4690;52.422;13.486;2024-02-26T15:43:40;10.50;99.90
9305;DHT22;4690;52.422;13.486;2024-02-26T15:46:06;10.50;99.90
9305;DHT22;4690;52.422;13.486;2024-02-26T15:48:32;10.40;99.90
9305;DHT22;4690;52.422;13.486;2024-02-26T15:50:58;10.40;99.90
9305;DHT22;4690;52.422;13.486;2024-02-26T15:53:24;10.40;99.90
9305;DHT22;4690;52.422;13.486;2024-02-26T15:55:50;10.40;99.90
9305;DHT22;4690;52.422;13.486;2024-02-26T15:58:17;10.40;99.90
9305;DHT22;4690;52.422;13.486;2024-02-26T16:00:42;10.30;99.90
9305;DHT22;4690;52.422;13.486;2024-02-26T16:03:09;10.30;99.90
9305;DHT22;4690;52.422;13.486;2024-02-26T16:05:36;10.30;99.90
9305;DHT22;4690;52.422;13.486;2024-02-26T16:08:16;10.30;99.90
9305;DHT22;4690;52.422;13.486;2024-02-26T16:10:46;10.30;99.90